createdAt,value
2017-09-25T00:02:02.287Z,26.30
2017-09-25T00:04:30.668Z,27.87
2017-09-25T00:06:59.146Z,27.70
2017-09-25T00:09:27.525Z,26.87
2017-09-25T00:11:55.906Z,24.47
2017-09-25T00:14:24.267Z,23.60
2017-09-25T00:16:52.962Z,23.97
2017-09-25T00:19:21.306Z,25.93
2017-09-25T00:21:50.453Z,25.17
2017-09-25T00:24:18.829Z,25.30
2017-09-25T00:26:47.022Z,27.40
2017-09-25T00:29:15.247Z,25.80
2017-09-25T00:31:43.829Z,26.40
2017-09-25T00:34:12.204Z,26.97
2017-09-25T00:36:40.587Z,26.10
2017-09-25T00:39:08.963Z,26.53
2017-09-25T00:41:37.331Z,25.50
2017-09-25T00:44:05.344Z,26.20
2017-09-25T00:46:33.884Z,27.10
2017-09-25T00:49:01.904Z,25.10
2017-09-25T00:51:29.571Z,25.23
2017-09-25T00:53:58.530Z,26.27
2017-09-25T00:56:26.905Z,25.03
2017-09-25T00:58:55.070Z,25.70
2017-09-25T01:01:34.254Z,24.00
2017-09-25T01:04:02.040Z,25.77
2017-09-25T01:06:30.404Z,27.33
2017-09-25T01:08:59.017Z,26.67
2017-09-25T01:11:27.410Z,26.20
2017-09-25T01:13:55.771Z,28.00
2017-09-25T01:16:24.146Z,25.23
2017-09-25T01:18:52.513Z,27.10
2017-09-25T01:21:20.921Z,25.17
2017-09-25T01:23:49.112Z,26.97
2017-09-25T01:26:17.292Z,26.37
2017-09-25T01:28:45.588Z,26.50
2017-09-25T01:31:14.019Z,29.27
2017-09-25T01:33:42.386Z,27.77
2017-09-25T01:36:10.923Z,28.50
2017-09-25T01:38:39.277Z,27.67
2017-09-25T01:41:07.726Z,25.50
2017-09-25T01:43:36.097Z,27.67
2017-09-25T01:46:04.451Z,28.73
2017-09-25T01:48:32.818Z,26.87
2017-09-25T01:51:01.279Z,28.20
2017-09-25T01:53:29.636Z,27.97
2017-09-25T01:55:58.036Z,28.57
2017-09-25T01:58:26.408Z,29.90
2017-09-25T02:00:54.941Z,29.20
2017-09-25T02:03:23.370Z,29.23
2017-09-25T02:05:51.843Z,27.80
2017-09-25T02:08:20.296Z,30.57
2017-09-25T02:10:48.476Z,29.93
2017-09-25T02:13:16.659Z,27.27
2017-09-25T02:15:45.011Z,27.00
2017-09-25T02:18:14.153Z,28.57
2017-09-25T02:20:42.523Z,27.70
2017-09-25T02:23:10.919Z,27.93
2017-09-25T02:25:39.298Z,29.30
2017-09-25T02:28:07.663Z,28.67
2017-09-25T02:30:36.026Z,26.50
2017-09-25T02:33:04.231Z,26.50
2017-09-25T02:35:32.407Z,27.17
2017-09-25T02:38:02.129Z,26.73
2017-09-25T02:40:31.461Z,26.80
2017-09-25T02:42:59.919Z,24.73
2017-09-25T02:45:28.316Z,26.40
2017-09-25T02:47:56.666Z,24.23
2017-09-25T02:50:25.035Z,26.17
2017-09-25T02:52:53.407Z,27.10
2017-09-25T02:55:22.039Z,26.80
2017-09-25T02:57:50.604Z,25.97
2017-09-25T03:00:18.980Z,23.93
2017-09-25T03:02:47.379Z,29.67
2017-09-25T03:05:15.978Z,24.67
2017-09-25T03:07:44.367Z,26.30
2017-09-25T03:10:12.718Z,25.40
2017-09-25T03:12:40.905Z,26.93
2017-09-25T03:15:09.294Z,23.13
2017-09-25T03:17:37.651Z,26.60
2017-09-25T03:20:06.018Z,27.00
2017-09-25T03:22:34.189Z,27.20
2017-09-25T03:25:02.583Z,23.67
2017-09-25T03:27:30.959Z,27.80
2017-09-25T03:29:59.328Z,26.50
2017-09-25T03:32:27.712Z,27.90
2017-09-25T03:34:56.077Z,27.20
2017-09-25T03:37:24.536Z,27.50
2017-09-25T03:39:53.113Z,25.80
2017-09-25T03:42:21.468Z,25.63
2017-09-25T03:44:49.830Z,25.93
2017-09-25T03:47:18.190Z,25.43
2017-09-25T03:49:46.600Z,22.17
2017-09-25T03:52:14.990Z,23.33
2017-09-25T03:54:43.353Z,23.23
2017-09-25T03:57:11.715Z,25.10
2017-09-25T03:59:40.086Z,25.00
2017-09-25T04:02:08.443Z,24.17
2017-09-25T04:04:36.806Z,22.30
2017-09-25T04:07:05.180Z,24.83
2017-09-25T04:09:33.568Z,23.00
2017-09-25T04:12:01.987Z,22.17
2017-09-25T04:14:30.422Z,23.37
2017-09-25T04:16:58.791Z,22.23
2017-09-25T04:19:27.166Z,25.03
2017-09-25T04:21:55.541Z,22.03
2017-09-25T04:24:23.966Z,24.53
2017-09-25T04:26:52.310Z,22.97
2017-09-25T04:29:20.928Z,25.00
2017-09-25T04:31:49.274Z,24.80
2017-09-25T04:34:18.411Z,23.90
2017-09-25T04:36:46.800Z,25.70
2017-09-25T04:39:15.164Z,25.30
2017-09-25T04:41:43.807Z,24.47
2017-09-25T04:44:12.199Z,24.10
2017-09-25T04:46:40.566Z,25.10
2017-09-25T04:49:08.935Z,24.37
2017-09-25T04:51:37.310Z,26.10
2017-09-25T04:54:05.696Z,22.53
2017-09-25T04:56:34.274Z,22.50
2017-09-25T04:59:02.731Z,25.00
2017-09-25T05:01:31.100Z,22.67
2017-09-25T05:03:59.724Z,21.10
2017-09-25T05:06:28.100Z,21.87
2017-09-25T05:08:56.445Z,23.10
2017-09-25T05:11:25.581Z,22.47
2017-09-25T05:13:53.945Z,22.87
2017-09-25T05:16:22.533Z,19.77
2017-09-25T05:18:51.133Z,25.47
2017-09-25T05:21:19.741Z,22.37
2017-09-25T05:23:48.274Z,23.73
2017-09-25T05:26:16.649Z,22.27
2017-09-25T05:28:44.423Z,21.73
2017-09-25T05:31:12.801Z,22.33
2017-09-25T05:33:41.174Z,21.40
2017-09-25T05:36:09.543Z,22.67
2017-09-25T05:38:37.942Z,23.03
2017-09-25T05:41:07.223Z,21.77
2017-09-25T05:43:36.047Z,21.20
2017-09-25T05:46:05.177Z,21.63
2017-09-25T05:48:33.914Z,21.53
2017-09-25T05:51:02.335Z,20.60
2017-09-25T05:53:30.717Z,19.57
2017-09-25T05:55:59.202Z,19.37
2017-09-25T05:58:27.566Z,20.87
2017-09-25T06:00:55.940Z,20.30
2017-09-25T06:03:24.319Z,20.93
2017-09-25T06:05:52.713Z,21.00
2017-09-25T06:08:21.396Z,20.50
2017-09-25T06:10:50.485Z,20.30
2017-09-25T06:13:18.676Z,20.77
2017-09-25T06:15:47.284Z,17.93
2017-09-25T06:18:16.963Z,18.00
2017-09-25T06:20:45.367Z,19.57
2017-09-25T06:23:14.651Z,20.30
2017-09-25T06:25:44.016Z,22.23
2017-09-25T06:28:12.455Z,19.53
2017-09-25T06:30:40.920Z,20.07
2017-09-25T06:33:09.864Z,18.73
2017-09-25T06:35:38.314Z,22.47
2017-09-25T06:38:07.459Z,20.50
2017-09-25T06:40:35.834Z,21.30
2017-09-25T06:43:04.214Z,19.97
2017-09-25T06:45:32.607Z,19.83
2017-09-25T06:48:01.216Z,21.77
2017-09-25T06:50:29.646Z,22.20
2017-09-25T06:52:58.018Z,21.40
2017-09-25T06:55:26.394Z,23.20
2017-09-25T06:57:54.442Z,21.27
2017-09-25T07:00:22.514Z,22.10
2017-09-25T07:02:51.197Z,22.43
2017-09-25T07:05:19.565Z,21.10
2017-09-25T07:07:48.139Z,20.60
2017-09-25T07:10:16.498Z,16.90
2017-09-25T07:12:44.871Z,20.70
2017-09-25T07:15:13.252Z,21.03
2017-09-25T07:17:41.628Z,20.47
2017-09-25T07:20:09.985Z,19.60
2017-09-25T07:22:38.372Z,18.93
2017-09-25T07:25:07.772Z,16.60
2017-09-25T07:27:36.916Z,17.17
2017-09-25T07:30:05.298Z,17.80
2017-09-25T07:32:33.875Z,17.70
2017-09-25T07:35:02.251Z,19.87
2017-09-25T07:37:30.634Z,18.27
2017-09-25T07:39:59.006Z,18.63
2017-09-25T07:42:27.378Z,19.43
2017-09-25T07:44:55.778Z,17.30
2017-09-25T07:47:24.168Z,18.20
2017-09-25T07:49:53.183Z,16.67
2017-09-25T07:52:21.556Z,17.47
2017-09-25T07:54:49.966Z,17.90
2017-09-25T07:57:18.339Z,17.47
2017-09-25T07:59:46.719Z,16.37
2017-09-25T08:02:15.111Z,17.10
2017-09-25T08:04:43.534Z,18.40
2017-09-25T08:07:12.681Z,17.20
2017-09-25T08:09:41.060Z,16.97
2017-09-25T08:12:09.447Z,17.30
2017-09-25T08:14:37.823Z,17.33
2017-09-25T08:17:06.207Z,15.97
2017-09-25T08:19:34.576Z,17.50
2017-09-25T08:22:03.749Z,19.07
2017-09-25T08:24:32.124Z,17.73
2017-09-25T08:27:01.520Z,17.83
2017-09-25T08:29:29.913Z,18.67
2017-09-25T08:31:58.284Z,18.07
2017-09-25T08:34:26.674Z,20.57
2017-09-25T08:36:55.041Z,16.33
2017-09-25T08:39:23.418Z,17.63
2017-09-25T08:41:51.795Z,16.40
2017-09-25T08:44:20.176Z,15.90
2017-09-25T08:46:48.563Z,16.07
2017-09-25T08:49:16.926Z,15.93
2017-09-25T08:51:45.361Z,16.10
2017-09-25T08:54:13.737Z,14.10
2017-09-25T08:56:42.111Z,14.30
2017-09-25T08:59:10.469Z,14.87
2017-09-25T09:01:38.970Z,15.47
2017-09-25T09:04:08.025Z,17.70
2017-09-25T09:06:36.394Z,16.37
2017-09-25T09:09:04.839Z,15.53
2017-09-25T09:11:33.228Z,16.10
2017-09-25T09:14:01.606Z,15.70
2017-09-25T09:16:30.146Z,14.80
2017-09-25T09:18:58.529Z,16.43
2017-09-25T09:21:26.915Z,15.60
2017-09-25T09:23:55.282Z,14.47
2017-09-25T09:26:23.662Z,14.30
2017-09-25T09:28:52.030Z,14.33
2017-09-25T09:31:20.708Z,12.77
2017-09-25T09:33:49.070Z,9.30
2017-09-25T09:36:17.425Z,10.30
2017-09-25T09:38:45.782Z,9.17
2017-09-25T09:41:14.189Z,9.43
2017-09-25T09:43:42.558Z,8.47
2017-09-25T09:46:10.929Z,7.63
2017-09-25T09:48:39.312Z,7.50
2017-09-25T09:51:07.674Z,8.30
2017-09-25T09:53:37.013Z,8.10
2017-09-25T09:56:05.372Z,7.90
2017-09-25T09:58:33.850Z,8.53
2017-09-25T10:01:02.245Z,8.03
2017-09-25T10:03:30.600Z,8.70
2017-09-25T10:05:59.019Z,8.40
2017-09-25T10:08:27.412Z,7.90
2017-09-25T10:10:55.903Z,9.00
2017-09-25T10:13:24.282Z,8.93
2017-09-25T10:15:52.646Z,7.97
2017-09-25T10:18:21.029Z,8.43
2017-09-25T10:20:49.662Z,9.17
2017-09-25T10:23:18.049Z,9.50
2017-09-25T10:25:46.476Z,8.83
2017-09-25T10:28:15.856Z,8.20
2017-09-25T10:30:44.276Z,8.93
2017-09-25T10:33:13.693Z,8.40
2017-09-25T10:35:42.071Z,8.00
2017-09-25T10:38:10.446Z,8.40
2017-09-25T10:40:38.923Z,8.17
2017-09-25T10:43:07.267Z,7.03
2017-09-25T10:45:35.641Z,7.00
2017-09-25T10:48:04.868Z,7.20
2017-09-25T10:50:33.382Z,8.10
2017-09-25T10:53:01.784Z,7.70
2017-09-25T10:55:30.151Z,7.20
2017-09-25T10:57:58.786Z,6.73
2017-09-25T11:00:27.296Z,6.10
2017-09-25T11:02:55.875Z,6.03
2017-09-25T11:05:24.424Z,6.90
2017-09-25T11:07:53.320Z,6.20
2017-09-25T11:10:21.751Z,6.23
2017-09-25T11:12:50.130Z,5.80
2017-09-25T11:15:18.491Z,5.47
2017-09-25T11:17:47.122Z,5.27
2017-09-25T11:20:15.524Z,6.63
2017-09-25T11:22:43.875Z,8.70
2017-09-25T11:25:13.068Z,8.30
2017-09-25T11:27:41.518Z,8.90
2017-09-25T11:30:09.900Z,8.27
2017-09-25T11:32:38.272Z,8.53
2017-09-25T11:35:06.860Z,9.70
2017-09-25T11:37:35.218Z,9.03
2017-09-25T11:40:03.569Z,8.73
2017-09-25T11:42:31.934Z,9.93
2017-09-25T11:45:00.334Z,9.50
2017-09-25T11:47:28.738Z,9.50
2017-09-25T11:49:57.103Z,8.27
2017-09-25T11:52:26.233Z,8.40
2017-09-25T11:54:54.726Z,9.13
2017-09-25T11:57:23.090Z,8.07
2017-09-25T11:59:51.687Z,7.70
2017-09-25T12:02:19.869Z,8.90
2017-09-25T12:04:48.259Z,7.93
2017-09-25T12:07:16.625Z,7.63
2017-09-25T12:09:45.036Z,8.10
2017-09-25T12:12:14.366Z,7.43
2017-09-25T12:14:42.719Z,7.47
2017-09-25T12:17:11.087Z,8.10
2017-09-25T12:19:40.210Z,7.50
2017-09-25T12:22:08.580Z,8.47
2017-09-25T12:24:37.163Z,7.33
2017-09-25T12:27:05.527Z,8.20
2017-09-25T12:29:34.120Z,7.90
2017-09-25T12:32:03.521Z,6.90
2017-09-25T12:34:31.863Z,6.73
2017-09-25T12:37:00.245Z,6.30
2017-09-25T12:39:28.617Z,6.50
2017-09-25T12:41:57.039Z,7.17
2017-09-25T12:44:25.408Z,6.87
2017-09-25T12:46:53.752Z,6.87
2017-09-25T12:49:22.148Z,6.27
2017-09-25T12:51:50.528Z,6.50
2017-09-25T12:54:18.882Z,7.20
2017-09-25T12:56:47.278Z,6.87
2017-09-25T12:59:15.666Z,7.20
2017-09-25T13:01:44.047Z,8.30
2017-09-25T13:04:12.430Z,7.40
2017-09-25T13:06:40.821Z,8.60
2017-09-25T13:09:09.364Z,8.30
2017-09-25T13:11:37.747Z,7.30
2017-09-25T13:14:06.649Z,7.50
2017-09-25T13:16:35.208Z,7.30
2017-09-25T13:19:03.564Z,7.17
2017-09-25T13:21:32.117Z,7.07
2017-09-25T13:24:00.466Z,7.10
2017-09-25T13:26:28.835Z,6.90
2017-09-25T13:28:57.194Z,7.53
2017-09-25T13:31:25.769Z,7.73
2017-09-25T13:33:54.118Z,7.73
2017-09-25T13:36:22.154Z,7.77
2017-09-25T13:38:50.531Z,7.50
2017-09-25T13:41:18.895Z,6.80
2017-09-25T13:43:47.262Z,6.77
2017-09-25T13:46:15.629Z,6.73
2017-09-25T13:48:44.000Z,6.73
2017-09-25T13:51:12.357Z,6.93
2017-09-25T13:53:40.726Z,6.33
2017-09-25T13:56:09.098Z,5.70
2017-09-25T14:03:44.938Z,5.77
2017-09-25T14:06:13.326Z,6.10
2017-09-25T14:08:41.702Z,6.60
2017-09-25T14:11:10.125Z,6.97
2017-09-25T14:13:38.712Z,6.67
2017-09-25T14:16:07.147Z,5.83
2017-09-25T14:18:35.564Z,5.90
2017-09-25T14:21:04.040Z,5.70
2017-09-25T14:23:32.726Z,5.83
2017-09-25T14:26:01.105Z,4.80
2017-09-25T14:28:29.464Z,4.90
2017-09-25T14:30:57.815Z,5.30
2017-09-25T14:33:26.949Z,5.40
2017-09-25T14:35:55.316Z,5.30
2017-09-25T14:38:23.771Z,4.90
2017-09-25T14:40:52.276Z,4.43
2017-09-25T14:43:21.661Z,6.00
2017-09-25T14:45:50.030Z,5.10
2017-09-25T14:48:19.176Z,5.20
2017-09-25T14:50:47.726Z,4.67
2017-09-25T14:53:16.170Z,4.77
2017-09-25T14:55:44.685Z,4.77
2017-09-25T14:58:13.158Z,5.37
2017-09-25T15:00:41.537Z,5.70
2017-09-25T15:03:09.900Z,4.43
2017-09-25T15:05:38.290Z,5.10
2017-09-25T15:08:06.927Z,5.23
2017-09-25T15:10:35.306Z,5.30
2017-09-25T15:13:03.683Z,5.03
2017-09-25T15:15:34.017Z,6.13
2017-09-25T15:18:02.376Z,5.70
2017-09-25T15:20:30.911Z,5.40
2017-09-25T15:22:59.517Z,4.67
2017-09-25T15:25:28.262Z,4.97
2017-09-25T15:27:56.950Z,5.90
2017-09-25T15:30:25.320Z,5.13
2017-09-25T15:32:53.693Z,5.03
2017-09-25T15:35:22.185Z,5.20
2017-09-25T15:37:50.655Z,4.90
2017-09-25T15:40:19.047Z,4.90
2017-09-25T15:42:47.395Z,4.57
2017-09-25T15:45:15.819Z,4.30
2017-09-25T15:47:44.981Z,4.43
2017-09-25T15:50:13.365Z,4.90
2017-09-25T15:52:41.733Z,4.90
2017-09-25T15:55:10.108Z,5.70
2017-09-25T15:57:39.489Z,5.27
2017-09-25T16:00:07.897Z,5.40
2017-09-25T16:02:36.288Z,5.20
2017-09-25T16:05:04.739Z,4.53
2017-09-25T16:07:33.128Z,5.33
2017-09-25T16:10:01.509Z,4.77
2017-09-25T16:12:29.890Z,5.03
2017-09-25T16:14:58.300Z,5.17
2017-09-25T16:17:26.657Z,6.03
2017-09-25T16:19:55.040Z,4.67
2017-09-25T16:22:23.409Z,5.00
2017-09-25T16:24:52.052Z,9.13
2017-09-25T16:27:20.643Z,8.60
2017-09-25T16:29:49.033Z,9.10
2017-09-25T16:32:18.133Z,9.47
2017-09-25T16:34:46.536Z,10.90
2017-09-25T16:37:14.926Z,11.10
2017-09-25T16:39:43.286Z,11.00
2017-09-25T16:42:11.707Z,12.10
2017-09-25T16:44:40.189Z,11.57
2017-09-25T16:47:08.565Z,11.30
2017-09-25T16:49:36.766Z,13.47
2017-09-25T16:52:05.140Z,13.03
2017-09-25T16:54:33.689Z,11.97
2017-09-25T16:57:02.328Z,14.00
2017-09-25T16:59:30.509Z,15.40
2017-09-25T17:01:59.540Z,14.43
2017-09-25T17:04:27.914Z,14.30
2017-09-25T17:06:56.496Z,13.97
2017-09-25T17:09:24.969Z,15.53
2017-09-25T17:11:53.364Z,15.40
2017-09-25T17:14:21.996Z,15.43
2017-09-25T17:16:51.125Z,14.57
2017-09-25T17:19:19.714Z,14.40
2017-09-25T17:21:48.084Z,15.63
2017-09-25T17:24:16.621Z,16.67
2017-09-25T17:26:45.080Z,16.10
2017-09-25T17:29:13.447Z,15.90
2017-09-25T17:31:41.891Z,16.30
2017-09-25T17:34:10.320Z,15.67
2017-09-25T17:36:38.707Z,15.47
2017-09-25T17:39:07.154Z,15.90
2017-09-25T17:41:35.515Z,16.30
2017-09-25T17:44:03.938Z,15.77
2017-09-25T17:46:32.877Z,16.53
2017-09-25T17:49:01.253Z,17.60
2017-09-25T17:51:29.620Z,17.10
2017-09-25T17:53:58.196Z,18.73
2017-09-25T17:56:26.581Z,17.83
2017-09-25T17:58:55.195Z,17.50
2017-09-25T18:01:23.627Z,18.70
2017-09-25T18:03:52.105Z,17.23
2017-09-25T18:06:20.484Z,19.30
2017-09-25T18:08:48.849Z,19.07
2017-09-25T18:11:17.437Z,21.20
2017-09-25T18:13:45.797Z,21.63
2017-09-25T18:16:14.924Z,20.90
2017-09-25T18:18:43.316Z,20.90
2017-09-25T18:21:11.698Z,20.10
2017-09-25T18:23:40.128Z,21.50
2017-09-25T18:26:09.154Z,20.83
2017-09-25T18:28:37.546Z,19.90
2017-09-25T18:31:05.965Z,20.80
2017-09-25T18:33:34.503Z,21.80
2017-09-25T18:36:02.888Z,21.57
2017-09-25T18:38:31.267Z,22.80
2017-09-25T18:40:59.648Z,23.33
2017-09-25T18:43:28.025Z,21.77
2017-09-25T18:45:56.424Z,24.80
2017-09-25T18:48:24.826Z,23.93
2017-09-25T18:50:53.247Z,24.60
2017-09-25T18:53:21.666Z,24.13
2017-09-25T18:55:50.065Z,22.73
2017-09-25T18:58:18.452Z,23.77
2017-09-25T19:00:46.822Z,24.00
2017-09-25T19:03:15.239Z,24.10
2017-09-25T19:05:43.733Z,24.30
2017-09-25T19:08:13.789Z,24.67
2017-09-25T19:10:42.217Z,24.23
2017-09-25T19:13:11.548Z,23.33
2017-09-25T19:15:39.928Z,25.33
2017-09-25T19:18:08.324Z,24.50
2017-09-25T19:20:36.736Z,25.50
2017-09-25T19:23:05.158Z,25.83
2017-09-25T19:25:33.527Z,27.37
2017-09-25T19:28:01.911Z,26.57
2017-09-25T19:30:30.289Z,26.40
2017-09-25T19:32:58.804Z,26.70
2017-09-25T19:35:27.184Z,26.43
2017-09-25T19:37:55.616Z,26.93
2017-09-25T19:40:23.683Z,27.57
2017-09-25T19:42:52.323Z,27.47
2017-09-25T19:45:22.175Z,27.00
2017-09-25T19:47:51.062Z,27.63
2017-09-25T19:50:21.773Z,24.90
2017-09-25T19:52:49.947Z,27.20
2017-09-25T19:55:22.000Z,27.60
2017-09-25T19:57:52.290Z,27.60
2017-09-25T20:00:20.482Z,27.90
2017-09-25T20:02:48.796Z,26.57
2017-09-25T20:05:17.192Z,27.47
2017-09-25T20:07:45.383Z,26.50
2017-09-25T20:12:58.056Z,27.70
2017-09-25T20:18:32.723Z,28.60
2017-09-25T20:21:01.093Z,26.83
2017-09-25T20:23:30.666Z,29.00
2017-09-25T20:25:59.134Z,28.87
2017-09-25T20:28:27.888Z,27.40
2017-09-25T20:30:56.470Z,27.03
2017-09-25T20:33:24.836Z,26.70
2017-09-25T20:35:53.287Z,27.53
2017-09-25T20:38:21.489Z,28.20
2017-09-25T20:40:53.192Z,26.43
2017-09-25T20:43:38.382Z,28.70
2017-09-25T20:46:06.745Z,24.70
2017-09-25T20:48:35.134Z,26.20
2017-09-25T20:51:02.829Z,27.77
2017-09-25T20:53:31.235Z,26.83
2017-09-25T20:56:00.374Z,26.60
2017-09-25T20:58:28.946Z,28.20
2017-09-25T21:00:57.194Z,28.20
2017-09-25T21:03:26.345Z,29.53
2017-09-25T21:05:54.574Z,28.53
2017-09-25T21:08:23.415Z,27.60
2017-09-25T21:10:51.638Z,28.87
2017-09-25T21:13:20.015Z,27.80
2017-09-25T21:15:48.462Z,29.07
2017-09-25T21:18:16.873Z,29.87
2017-09-25T21:20:45.234Z,28.70
2017-09-25T21:23:13.405Z,29.67
2017-09-25T21:25:41.980Z,29.20
2017-09-25T21:28:10.279Z,28.80
2017-09-25T21:30:38.644Z,29.30
2017-09-25T21:33:07.049Z,29.93
2017-09-25T21:35:35.431Z,29.93
2017-09-25T21:38:03.804Z,31.47
2017-09-25T21:40:32.469Z,30.50
2017-09-25T21:43:01.034Z,34.00
2017-09-25T21:45:29.418Z,32.10
2017-09-25T21:47:57.893Z,29.60
2017-09-25T21:50:26.473Z,32.90
2017-09-25T21:52:54.847Z,33.37
2017-09-25T21:55:23.211Z,34.20
2017-09-25T21:57:51.572Z,31.87
2017-09-25T22:00:20.224Z,32.07
2017-09-25T22:02:48.582Z,30.70
2017-09-25T22:05:16.950Z,32.87
2017-09-25T22:07:45.532Z,30.93
2017-09-25T22:10:13.895Z,32.13
2017-09-25T22:12:42.368Z,35.20
2017-09-25T22:15:10.849Z,32.00
2017-09-25T22:17:39.213Z,32.30
2017-09-25T22:20:07.786Z,32.07
2017-09-25T22:22:36.150Z,32.70
2017-09-25T22:25:04.547Z,35.63
2017-09-25T22:27:32.992Z,35.93
2017-09-25T22:30:03.052Z,32.37
2017-09-25T22:32:31.226Z,36.37
2017-09-25T22:34:59.407Z,34.43
2017-09-25T22:37:27.651Z,38.03
2017-09-25T22:40:00.638Z,33.20
2017-09-25T22:42:32.453Z,33.80
2017-09-25T22:45:00.648Z,32.87
2017-09-25T22:47:29.774Z,32.63
2017-09-25T22:49:57.964Z,29.73
2017-09-25T22:52:26.150Z,31.60
2017-09-25T22:54:54.384Z,32.30
2017-09-25T22:57:22.558Z,33.50
2017-09-25T22:59:51.302Z,31.60
2017-09-25T23:02:19.516Z,32.23
2017-09-25T23:04:50.230Z,32.60
2017-09-25T23:07:20.000Z,31.17
2017-09-25T23:09:53.910Z,32.00
2017-09-25T23:12:22.921Z,31.40
2017-09-25T23:14:52.907Z,30.53
2017-09-25T23:17:22.265Z,32.80
2017-09-25T23:19:50.638Z,29.57
2017-09-25T23:22:19.013Z,28.93
2017-09-25T23:24:48.232Z,30.33
2017-09-25T23:27:17.453Z,32.40
2017-09-25T23:32:54.326Z,29.50
2017-09-25T23:35:22.744Z,30.20
2017-09-25T23:37:51.328Z,31.80
2017-09-25T23:40:19.702Z,33.27
2017-09-25T23:42:48.063Z,32.13
2017-09-25T23:45:16.456Z,30.00
2017-09-25T23:47:45.063Z,28.80
2017-09-25T23:50:13.594Z,31.30
2017-09-25T23:52:41.959Z,31.80
2017-09-25T23:55:10.849Z,31.10
2017-09-25T23:57:39.241Z,29.83
